sensor_id;sensor_type;location;lat;lon;timestamp;temperature;humidity
46117;DHT22;32591;48.102;11.772;2023-08-31T00:00:11;13.80;99.90
46117;DHT22;32591;48.102;11.772;2023-08-31T00:02:40;13.70;99.90
46117;DHT22;32591;48.102;11.772;2023-08-31T00:05:08;13.70;99.90
46117;DHT22;32591;48.102;11.772;2023-08-31T00:07:35;13.60;99.90
46117;DHT22;32591;48.102;11.772;2023-08-31T00:10:02;13.60;99.90
46117;DHT22;32591;48.102;11.772;2023-08-31T00:12:34;13.60;99.90
46117;DHT22;32591;48.102;11.772;2023-08-31T00:15:03;13.50;99.90
46117;DHT22;32591;48.102;11.772;2023-08-31T00:17:30;13.50;99.90
46117;DHT22;32591;48.102;11.772;2023-08-31T00:19:59;13.40;99.90
46117;DHT22;32591;48.102;11.772;2023-08-31T00:22:26;13.40;99.90
46117;DHT22;32591;48.102;11.772;2023-08-31T00:24:54;13.40;99.90
46117;DHT22;32591;48.102;11.772;2023-08-31T00:27:21;13.40;99.90
46117;DHT22;32591;48.102;11.772;2023-08-31T00:29:48;13.50;99.90
46117;DHT22;32591;48.102;11.772;2023-08-31T00:32:16;13.40;99.90
46117;DHT22;32591;48.102;11.772;2023-08-31T00:34:43;13.40;99.90
46117;DHT22;32591;48.102;11.772;2023-08-31T00:37:12;13.40;99.90
46117;DHT22;32591;48.102;11.772;2023-08-31T00:39:39;13.40;99.90
46117;DHT22;32591;48.102;11.772;2023-08-31T00:42:06;13.40;99.90
46117;DHT22;32591;48.102;11.772;2023-08-31T00:44:33;13.40;99.90
46117;DHT22;32591;48.102;11.772;2023-08-31T00:47:00;13.30;99.90
46117;DHT22;32591;48.102;11.772;2023-08-31T00:49:29;13.30;99.90
46117;DHT22;32591;48.102;11.772;2023-08-31T00:51:56;13.20;99.90
46117;DHT22;32591;48.102;11.772;2023-08-31T00:54:24;13.30;99.90
46117;DHT22;32591;48.102;11.772;2023-08-31T00:56:53;13.30;99.90
46117;DHT22;32591;48.102;11.772;2023-08-31T00:59:20;13.30;99.90
46117;DHT22;32591;48.102;11.772;2023-08-31T01:01:54;13.30;99.90
46117;DHT22;32591;48.102;11.772;2023-08-31T01:04:25;13.20;99.90
46117;DHT22;32591;48.102;11.772;2023-08-31T01:07:03;13.20;99.90
46117;DHT22;32591;48.102;11.772;2023-08-31T01:09:40;13.20;99.90
46117;DHT22;32591;48.102;11.772;2023-08-31T01:12:14;13.20;99.90
46117;DHT22;32591;48.102;11.772;2023-08-31T01:14:53;13.10;99.90
46117;DHT22;32591;48.102;11.772;2023-08-31T01:17:24;13.10;99.90
46117;DHT22;32591;48.102;11.772;2023-08-31T01:19:57;13.10;99.90
46117;DHT22;32591;48.102;11.772;2023-08-31T01:22:30;13.10;99.90
46117;DHT22;32591;48.102;11.772;2023-08-31T01:25:01;13.10;99.90
46117;DHT22;32591;48.102;11.772;2023-08-31T01:27:30;13.10;99.90
46117;DHT22;32591;48.102;11.772;2023-08-31T01:29:57;13.00;99.90
46117;DHT22;32591;48.102;11.772;2023-08-31T01:32:24;13.00;99.90
46117;DHT22;32591;48.102;11.772;2023-08-31T01:34:52;13.00;99.90
46117;DHT22;32591;48.102;11.772;2023-08-31T01:37:24;13.00;99.90
46117;DHT22;32591;48.102;11.772;2023-08-31T01:39:58;13.00;99.90
46117;DHT22;32591;48.102;11.772;2023-08-31T01:42:31;13.00;99.90
46117;DHT22;32591;48.102;11.772;2023-08-31T01:44:59;13.00;99.90
46117;DHT22;32591;48.102;11.772;2023-08-31T01:47:28;13.00;99.90
46117;DHT22;32591;48.102;11.772;2023-08-31T01:49:54;13.00;99.90
46117;DHT22;32591;48.102;11.772;2023-08-31T01:52:21;13.00;99.90
46117;DHT22;32591;48.102;11.772;2023-08-31T01:54:48;13.00;99.90
46117;DHT22;32591;48.102;11.772;2023-08-31T01:57:17;13.00;99.90
46117;DHT22;32591;48.102;11.772;2023-08-31T01:59:44;13.00;99.90
46117;DHT22;32591;48.102;11.772;2023-08-31T02:02:11;13.00;99.90
46117;DHT22;32591;48.102;11.772;2023-08-31T02:04:38;13.00;99.90
46117;DHT22;32591;48.102;11.772;2023-08-31T02:07:05;13.00;99.90
46117;DHT22;32591;48.102;11.772;2023-08-31T02:09:32;13.10;99.90
46117;DHT22;32591;48.102;11.772;2023-08-31T02:11:58;13.20;99.90
46117;DHT22;32591;48.102;11.772;2023-08-31T02:14:27;13.20;99.90
46117;DHT22;32591;48.102;11.772;2023-08-31T02:16:56;13.30;99.90
46117;DHT22;32591;48.102;11.772;2023-08-31T02:19:23;13.30;99.90
46117;DHT22;32591;48.102;11.772;2023-08-31T02:21:50;13.30;99.90
46117;DHT22;32591;48.102;11.772;2023-08-31T02:24:16;13.40;99.90
46117;DHT22;32591;48.102;11.772;2023-08-31T02:26:43;13.30;99.90
46117;DHT22;32591;48.102;11.772;2023-08-31T02:29:10;13.30;99.90
46117;DHT22;32591;48.102;11.772;2023-08-31T02:31:39;13.30;99.90
46117;DHT22;32591;48.102;11.772;2023-08-31T02:34:07;13.30;99.90
46117;DHT22;32591;48.102;11.772;2023-08-31T02:36:34;13.30;99.90
46117;DHT22;32591;48.102;11.772;2023-08-31T02:39:01;13.30;99.90
46117;DHT22;32591;48.102;11.772;2023-08-31T02:41:29;13.30;99.90
46117;DHT22;32591;48.102;11.772;2023-08-31T02:43:56;13.30;99.90
46117;DHT22;32591;48.102;11.772;2023-08-31T02:46:23;13.20;99.90
46117;DHT22;32591;48.102;11.772;2023-08-31T02:48:51;13.20;99.90
46117;DHT22;32591;48.102;11.772;2023-08-31T02:51:18;13.10;99.90
46117;DHT22;32591;48.102;11.772;2023-08-31T02:53:45;13.00;99.90
46117;DHT22;32591;48.102;11.772;2023-08-31T02:56:12;12.90;99.90
46117;DHT22;32591;48.102;11.772;2023-08-31T02:58:39;12.90;99.90
46117;DHT22;32591;48.102;11.772;2023-08-31T03:01:07;12.70;99.90
46117;DHT22;32591;48.102;11.772;2023-08-31T03:03:36;12.70;99.90
46117;DHT22;32591;48.102;11.772;2023-08-31T03:06:06;12.70;99.90
46117;DHT22;32591;48.102;11.772;2023-08-31T03:08:34;12.70;99.90
46117;DHT22;32591;48.102;11.772;2023-08-31T03:11:02;12.60;99.90
46117;DHT22;32591;48.102;11.772;2023-08-31T03:13:29;12.60;99.90
46117;DHT22;32591;48.102;11.772;2023-08-31T03:16:01;12.60;99.90
46117;DHT22;32591;48.102;11.772;2023-08-31T03:18:29;12.60;99.90
46117;DHT22;32591;48.102;11.772;2023-08-31T03:20:56;12.70;99.90
46117;DHT22;32591;48.102;11.772;2023-08-31T03:23:25;12.80;99.90
46117;DHT22;32591;48.102;11.772;2023-08-31T03:25:52;12.90;99.90
46117;DHT22;32591;48.102;11.772;2023-08-31T03:28:20;13.00;99.90
46117;DHT22;32591;48.102;11.772;2023-08-31T03:30:54;13.00;99.90
46117;DHT22;32591;48.102;11.772;2023-08-31T03:33:21;13.00;99.90
46117;DHT22;32591;48.102;11.772;2023-08-31T03:35:48;12.90;99.90
46117;DHT22;32591;48.102;11.772;2023-08-31T03:38:15;12.90;99.90
46117;DHT22;32591;48.102;11.772;2023-08-31T03:40:52;12.90;99.90
46117;DHT22;32591;48.102;11.772;2023-08-31T03:43:20;12.80;99.90
46117;DHT22;32591;48.102;11.772;2023-08-31T03:45:47;12.80;99.90
46117;DHT22;32591;48.102;11.772;2023-08-31T03:48:14;12.80;99.90
46117;DHT22;32591;48.102;11.772;2023-08-31T03:50:41;13.00;99.90
46117;DHT22;32591;48.102;11.772;2023-08-31T03:53:08;12.90;99.90
46117;DHT22;32591;48.102;11.772;2023-08-31T03:55:36;13.00;99.90
46117;DHT22;32591;48.102;11.772;2023-08-31T03:58:04;12.90;99.90
46117;DHT22;32591;48.102;11.772;2023-08-31T04:00:32;12.80;99.90
46117;DHT22;32591;48.102;11.772;2023-08-31T04:02:59;12.90;99.90
46117;DHT22;32591;48.102;11.772;2023-08-31T04:05:26;12.70;99.90
46117;DHT22;32591;48.102;11.772;2023-08-31T04:07:52;12.70;99.90
46117;DHT22;32591;48.102;11.772;2023-08-31T04:10:19;12.70;99.90
46117;DHT22;32591;48.102;11.772;2023-08-31T04:12:46;12.70;99.90
46117;DHT22;32591;48.102;11.772;2023-08-31T04:15:15;12.70;99.90
46117;DHT22;32591;48.102;11.772;2023-08-31T04:17:42;12.60;99.90
46117;DHT22;32591;48.102;11.772;2023-08-31T04:20:10;12.70;99.90
46117;DHT22;32591;48.102;11.772;2023-08-31T04:22:37;12.70;99.90
46117;DHT22;32591;48.102;11.772;2023-08-31T04:25:05;12.70;99.90
46117;DHT22;32591;48.102;11.772;2023-08-31T04:27:35;12.70;99.90
46117;DHT22;32591;48.102;11.772;2023-08-31T04:30:05;12.70;99.90
46117;DHT22;32591;48.102;11.772;2023-08-31T04:32:44;12.70;99.90
46117;DHT22;32591;48.102;11.772;2023-08-31T04:35:12;12.70;99.90
46117;DHT22;32591;48.102;11.772;2023-08-31T04:37:39;12.60;99.90
46117;DHT22;32591;48.102;11.772;2023-08-31T04:40:07;12.70;99.90
46117;DHT22;32591;48.102;11.772;2023-08-31T04:42:35;12.70;99.90
46117;DHT22;32591;48.102;11.772;2023-08-31T04:45:03;12.70;99.90
46117;DHT22;32591;48.102;11.772;2023-08-31T04:47:30;12.80;99.90
46117;DHT22;32591;48.102;11.772;2023-08-31T04:49:59;12.70;99.90
46117;DHT22;32591;48.102;11.772;2023-08-31T04:52:26;12.70;99.90
46117;DHT22;32591;48.102;11.772;2023-08-31T04:54:53;12.70;99.90
46117;DHT22;32591;48.102;11.772;2023-08-31T04:57:20;12.70;99.90
46117;DHT22;32591;48.102;11.772;2023-08-31T04:59:47;12.70;99.90
46117;DHT22;32591;48.102;11.772;2023-08-31T05:02:14;12.70;99.90
46117;DHT22;32591;48.102;11.772;2023-08-31T05:04:41;12.70;99.90
46117;DHT22;32591;48.102;11.772;2023-08-31T05:07:09;12.80;99.90
46117;DHT22;32591;48.102;11.772;2023-08-31T05:09:36;12.90;99.90
46117;DHT22;32591;48.102;11.772;2023-08-31T05:12:04;12.90;99.90
46117;DHT22;32591;48.102;11.772;2023-08-31T05:14:33;13.00;99.90
46117;DHT22;32591;48.102;11.772;2023-08-31T05:17:02;13.10;99.90
46117;DHT22;32591;48.102;11.772;2023-08-31T05:19:30;13.10;99.90
46117;DHT22;32591;48.102;11.772;2023-08-31T05:21:57;13.10;99.90
46117;DHT22;32591;48.102;11.772;2023-08-31T05:24:25;13.10;99.90
46117;DHT22;32591;48.102;11.772;2023-08-31T05:26:52;13.20;99.90
46117;DHT22;32591;48.102;11.772;2023-08-31T05:29:19;13.30;99.90
46117;DHT22;32591;48.102;11.772;2023-08-31T05:31:46;13.40;99.90
46117;DHT22;32591;48.102;11.772;2023-08-31T05:34:16;13.30;99.90
46117;DHT22;32591;48.102;11.772;2023-08-31T05:36:43;13.30;99.90
46117;DHT22;32591;48.102;11.772;2023-08-31T05:39:10;13.40;99.90
46117;DHT22;32591;48.102;11.772;2023-08-31T05:41:41;13.40;99.90
46117;DHT22;32591;48.102;11.772;2023-08-31T05:44:09;13.50;99.90
46117;DHT22;32591;48.102;11.772;2023-08-31T05:46:36;13.50;99.90
46117;DHT22;32591;48.102;11.772;2023-08-31T05:49:04;13.60;99.90
46117;DHT22;32591;48.102;11.772;2023-08-31T05:51:31;13.70;99.90
46117;DHT22;32591;48.102;11.772;2023-08-31T05:53:58;13.90;99.90
46117;DHT22;32591;48.102;11.772;2023-08-31T05:56:25;13.90;99.90
46117;DHT22;32591;48.102;11.772;2023-08-31T05:58:53;13.80;99.90
46117;DHT22;32591;48.102;11.772;2023-08-31T06:01:22;13.90;99.90
46117;DHT22;32591;48.102;11.772;2023-08-31T06:03:48;13.90;99.90
46117;DHT22;32591;48.102;11.772;2023-08-31T06:06:15;14.00;99.90
46117;DHT22;32591;48.102;11.772;2023-08-31T06:08:42;14.00;99.90
46117;DHT22;32591;48.102;11.772;2023-08-31T06:11:09;14.00;99.90
46117;DHT22;32591;48.102;11.772;2023-08-31T06:13:38;14.00;99.90
46117;DHT22;32591;48.102;11.772;2023-08-31T06:16:07;13.90;99.90
46117;DHT22;32591;48.102;11.772;2023-08-31T06:18:34;13.90;99.90
46117;DHT22;32591;48.102;11.772;2023-08-31T06:21:01;13.90;99.90
46117;DHT22;32591;48.102;11.772;2023-08-31T06:23:27;13.90;99.90
46117;DHT22;32591;48.102;11.772;2023-08-31T06:25:54;14.00;99.90
46117;DHT22;32591;48.102;11.772;2023-08-31T06:28:22;13.90;99.90
46117;DHT22;32591;48.102;11.772;2023-08-31T06:30:49;13.90;99.90
46117;DHT22;32591;48.102;11.772;2023-08-31T06:33:17;13.90;99.90
46117;DHT22;32591;48.102;11.772;2023-08-31T06:35:46;13.90;99.90
46117;DHT22;32591;48.102;11.772;2023-08-31T06:38:14;13.90;99.90
46117;DHT22;32591;48.102;11.772;2023-08-31T06:40:42;13.90;99.90
46117;DHT22;32591;48.102;11.772;2023-08-31T06:43:10;13.90;99.90
46117;DHT22;32591;48.102;11.772;2023-08-31T06:45:37;14.00;99.90
46117;DHT22;32591;48.102;11.772;2023-08-31T06:48:04;14.10;99.90
46117;DHT22;32591;48.102;11.772;2023-08-31T06:50:34;14.20;99.90
46117;DHT22;32591;48.102;11.772;2023-08-31T06:53:02;14.30;99.90
46117;DHT22;32591;48.102;11.772;2023-08-31T06:55:30;14.30;99.90
46117;DHT22;32591;48.102;11.772;2023-08-31T06:57:59;14.30;99.90
46117;DHT22;32591;48.102;11.772;2023-08-31T07:00:26;14.20;99.90
46117;DHT22;32591;48.102;11.772;2023-08-31T07:02:53;14.30;99.90
46117;DHT22;32591;48.102;11.772;2023-08-31T07:05:25;14.40;99.90
46117;DHT22;32591;48.102;11.772;2023-08-31T07:07:55;14.30;99.90
46117;DHT22;32591;48.102;11.772;2023-08-31T07:10:22;14.20;99.90
46117;DHT22;32591;48.102;11.772;2023-08-31T07:12:50;14.20;99.90
46117;DHT22;32591;48.102;11.772;2023-08-31T07:15:17;14.20;99.90
46117;DHT22;32591;48.102;11.772;2023-08-31T07:17:44;14.20;99.90
46117;DHT22;32591;48.102;11.772;2023-08-31T07:20:11;14.20;99.90
46117;DHT22;32591;48.102;11.772;2023-08-31T07:22:38;14.20;99.90
46117;DHT22;32591;48.102;11.772;2023-08-31T07:25:08;14.30;99.90
46117;DHT22;32591;48.102;11.772;2023-08-31T07:27:35;14.40;99.90
46117;DHT22;32591;48.102;11.772;2023-08-31T07:30:03;14.50;99.90
46117;DHT22;32591;48.102;11.772;2023-08-31T07:32:31;14.50;99.90
46117;DHT22;32591;48.102;11.772;2023-08-31T07:34:58;14.60;99.90
46117;DHT22;32591;48.102;11.772;2023-08-31T07:37:25;14.50;99.90
46117;DHT22;32591;48.102;11.772;2023-08-31T07:39:53;14.50;99.90
46117;DHT22;32591;48.102;11.772;2023-08-31T07:42:21;14.60;99.90
46117;DHT22;32591;48.102;11.772;2023-08-31T07:44:48;14.70;99.90
46117;DHT22;32591;48.102;11.772;2023-08-31T07:47:15;14.70;99.90
46117;DHT22;32591;48.102;11.772;2023-08-31T07:49:42;14.80;99.90
46117;DHT22;32591;48.102;11.772;2023-08-31T07:52:09;14.80;99.90
46117;DHT22;32591;48.102;11.772;2023-08-31T07:54:36;14.70;99.90
46117;DHT22;32591;48.102;11.772;2023-08-31T07:57:04;14.60;99.90
46117;DHT22;32591;48.102;11.772;2023-08-31T07:59:32;14.60;99.90
46117;DHT22;32591;48.102;11.772;2023-08-31T08:01:59;14.70;99.90
46117;DHT22;32591;48.102;11.772;2023-08-31T08:04:26;14.70;99.90
46117;DHT22;32591;48.102;11.772;2023-08-31T08:06:55;14.70;99.90
46117;DHT22;32591;48.102;11.772;2023-08-31T08:09:22;14.80;99.90
46117;DHT22;32591;48.102;11.772;2023-08-31T08:11:49;14.80;99.90
46117;DHT22;32591;48.102;11.772;2023-08-31T08:14:16;14.80;99.90
46117;DHT22;32591;48.102;11.772;2023-08-31T08:16:44;14.80;99.90
46117;DHT22;32591;48.102;11.772;2023-08-31T08:19:11;14.70;99.90
46117;DHT22;32591;48.102;11.772;2023-08-31T08:21:38;14.80;99.90
46117;DHT22;32591;48.102;11.772;2023-08-31T08:24:05;14.70;99.90
46117;DHT22;32591;48.102;11.772;2023-08-31T08:26:33;14.80;99.90
46117;DHT22;32591;48.102;11.772;2023-08-31T08:29:00;15.00;99.90
46117;DHT22;32591;48.102;11.772;2023-08-31T08:31:26;15.10;99.90
46117;DHT22;32591;48.102;11.772;2023-08-31T08:33:55;15.10;99.90
46117;DHT22;32591;48.102;11.772;2023-08-31T08:36:22;15.10;99.90
46117;DHT22;32591;48.102;11.772;2023-08-31T08:38:49;15.20;99.90
46117;DHT22;32591;48.102;11.772;2023-08-31T08:41:17;15.30;99.90
46117;DHT22;32591;48.102;11.772;2023-08-31T08:43:47;15.40;99.90
46117;DHT22;32591;48.102;11.772;2023-08-31T08:46:14;15.40;99.90
46117;DHT22;32591;48.102;11.772;2023-08-31T08:48:41;15.50;99.90
46117;DHT22;32591;48.102;11.772;2023-08-31T08:51:11;15.30;99.90
46117;DHT22;32591;48.102;11.772;2023-08-31T08:53:41;15.20;99.90
46117;DHT22;32591;48.102;11.772;2023-08-31T08:56:09;15.20;99.90
46117;DHT22;32591;48.102;11.772;2023-08-31T08:58:36;15.40;99.90
46117;DHT22;32591;48.102;11.772;2023-08-31T09:01:04;15.60;99.90
46117;DHT22;32591;48.102;11.772;2023-08-31T09:03:32;15.60;99.90
46117;DHT22;32591;48.102;11.772;2023-08-31T09:05:59;15.60;99.90
46117;DHT22;32591;48.102;11.772;2023-08-31T09:08:30;15.70;99.90
46117;DHT22;32591;48.102;11.772;2023-08-31T09:10:57;15.70;99.90
46117;DHT22;32591;48.102;11.772;2023-08-31T09:13:27;15.80;99.90
46117;DHT22;32591;48.102;11.772;2023-08-31T09:15:56;15.90;99.90
46117;DHT22;32591;48.102;11.772;2023-08-31T09:18:24;15.90;99.90
46117;DHT22;32591;48.102;11.772;2023-08-31T09:20:53;16.10;99.90
46117;DHT22;32591;48.102;11.772;2023-08-31T09:23:22;16.20;99.90
46117;DHT22;32591;48.102;11.772;2023-08-31T09:25:52;16.20;99.90
46117;DHT22;32591;48.102;11.772;2023-08-31T09:28:21;16.10;99.90
46117;DHT22;32591;48.102;11.772;2023-08-31T09:30:50;16.00;99.90
46117;DHT22;32591;48.102;11.772;2023-08-31T09:33:18;16.00;99.90
46117;DHT22;32591;48.102;11.772;2023-08-31T09:35:51;16.00;99.90
46117;DHT22;32591;48.102;11.772;2023-08-31T09:38:19;15.90;99.90
46117;DHT22;32591;48.102;11.772;2023-08-31T09:40:46;15.90;99.90
46117;DHT22;32591;48.102;11.772;2023-08-31T09:43:20;15.90;99.90
46117;DHT22;32591;48.102;11.772;2023-08-31T09:45:49;15.90;99.90
46117;DHT22;32591;48.102;11.772;2023-08-31T09:48:16;15.80;99.90
46117;DHT22;32591;48.102;11.772;2023-08-31T09:50:44;16.00;99.90
46117;DHT22;32591;48.102;11.772;2023-08-31T09:53:12;16.10;99.90
46117;DHT22;32591;48.102;11.772;2023-08-31T09:55:40;16.30;99.90
46117;DHT22;32591;48.102;11.772;2023-08-31T09:58:08;16.20;99.90
46117;DHT22;32591;48.102;11.772;2023-08-31T10:00:37;16.20;99.90
46117;DHT22;32591;48.102;11.772;2023-08-31T10:03:05;16.30;99.90
46117;DHT22;32591;48.102;11.772;2023-08-31T10:05:33;16.30;99.90
46117;DHT22;32591;48.102;11.772;2023-08-31T10:08:00;16.30;99.90
46117;DHT22;32591;48.102;11.772;2023-08-31T10:10:28;16.40;99.90
46117;DHT22;32591;48.102;11.772;2023-08-31T10:12:56;16.60;99.90
46117;DHT22;32591;48.102;11.772;2023-08-31T10:15:28;16.80;99.90
46117;DHT22;32591;48.102;11.772;2023-08-31T10:18:00;17.10;99.90
46117;DHT22;32591;48.102;11.772;2023-08-31T10:20:29;17.20;99.90
46117;DHT22;32591;48.102;11.772;2023-08-31T10:22:57;17.10;99.90
46117;DHT22;32591;48.102;11.772;2023-08-31T10:25:24;17.10;99.90
46117;DHT22;32591;48.102;11.772;2023-08-31T10:27:52;17.10;99.90
46117;DHT22;32591;48.102;11.772;2023-08-31T10:30:26;17.10;99.90
46117;DHT22;32591;48.102;11.772;2023-08-31T10:33:23;17.00;99.90
46117;DHT22;32591;48.102;11.772;2023-08-31T10:35:52;16.80;99.90
46117;DHT22;32591;48.102;11.772;2023-08-31T10:38:27;16.80;99.90
46117;DHT22;32591;48.102;11.772;2023-08-31T10:41:17;16.70;99.90
46117;DHT22;32591;48.102;11.772;2023-08-31T10:43:49;16.70;99.90
46117;DHT22;32591;48.102;11.772;2023-08-31T10:46:26;16.70;99.90
46117;DHT22;32591;48.102;11.772;2023-08-31T10:48:56;16.80;99.90
46117;DHT22;32591;48.102;11.772;2023-08-31T10:51:25;16.80;99.90
46117;DHT22;32591;48.102;11.772;2023-08-31T10:54:08;16.70;99.90
46117;DHT22;32591;48.102;11.772;2023-08-31T10:56:53;16.60;99.90
46117;DHT22;32591;48.102;11.772;2023-08-31T10:59:21;16.50;99.90
46117;DHT22;32591;48.102;11.772;2023-08-31T11:01:55;16.50;99.90
46117;DHT22;32591;48.102;11.772;2023-08-31T11:04:25;16.60;99.90
46117;DHT22;32591;48.102;11.772;2023-08-31T11:07:13;16.70;99.90
46117;DHT22;32591;48.102;11.772;2023-08-31T11:09:43;16.70;99.90
46117;DHT22;32591;48.102;11.772;2023-08-31T11:12:10;16.60;99.90
46117;DHT22;32591;48.102;11.772;2023-08-31T11:14:38;16.50;99.90
46117;DHT22;32591;48.102;11.772;2023-08-31T11:17:05;16.40;99.90
46117;DHT22;32591;48.102;11.772;2023-08-31T11:19:35;16.50;99.90
46117;DHT22;32591;48.102;11.772;2023-08-31T11:22:03;16.50;99.90
46117;DHT22;32591;48.102;11.772;2023-08-31T11:24:31;16.50;99.90
46117;DHT22;32591;48.102;11.772;2023-08-31T11:26:59;16.40;99.90
46117;DHT22;32591;48.102;11.772;2023-08-31T11:29:29;16.30;99.90
46117;DHT22;32591;48.102;11.772;2023-08-31T11:31:56;16.20;99.90
46117;DHT22;32591;48.102;11.772;2023-08-31T11:34:25;16.20;99.90
46117;DHT22;32591;48.102;11.772;2023-08-31T11:36:54;16.20;99.90
46117;DHT22;32591;48.102;11.772;2023-08-31T11:39:22;16.10;99.90
46117;DHT22;32591;48.102;11.772;2023-08-31T11:41:51;16.10;99.90
46117;DHT22;32591;48.102;11.772;2023-08-31T11:44:18;16.10;99.90
46117;DHT22;32591;48.102;11.772;2023-08-31T11:46:46;16.20;99.90
46117;DHT22;32591;48.102;11.772;2023-08-31T11:49:16;16.20;99.90
46117;DHT22;32591;48.102;11.772;2023-08-31T11:51:45;16.00;99.90
46117;DHT22;32591;48.102;11.772;2023-08-31T11:54:16;15.90;99.90
46117;DHT22;32591;48.102;11.772;2023-08-31T11:56:44;15.80;99.90
46117;DHT22;32591;48.102;11.772;2023-08-31T11:59:16;15.80;99.90
46117;DHT22;32591;48.102;11.772;2023-08-31T12:01:45;15.90;99.90
46117;DHT22;32591;48.102;11.772;2023-08-31T12:04:14;15.90;99.90
46117;DHT22;32591;48.102;11.772;2023-08-31T12:06:42;16.10;99.90
46117;DHT22;32591;48.102;11.772;2023-08-31T12:09:12;16.30;99.90
46117;DHT22;32591;48.102;11.772;2023-08-31T12:11:41;16.70;99.90
46117;DHT22;32591;48.102;11.772;2023-08-31T12:14:20;17.10;99.90
46117;DHT22;32591;48.102;11.772;2023-08-31T12:16:49;17.20;99.90
46117;DHT22;32591;48.102;11.772;2023-08-31T12:19:17;17.30;99.90
46117;DHT22;32591;48.102;11.772;2023-08-31T12:21:45;17.40;99.90
46117;DHT22;32591;48.102;11.772;2023-08-31T12:24:13;17.60;99.90
46117;DHT22;32591;48.102;11.772;2023-08-31T12:26:43;17.50;99.90
46117;DHT22;32591;48.102;11.772;2023-08-31T12:29:10;17.40;99.90
46117;DHT22;32591;48.102;11.772;2023-08-31T12:31:37;17.10;99.90
46117;DHT22;32591;48.102;11.772;2023-08-31T12:34:05;17.20;99.90
46117;DHT22;32591;48.102;11.772;2023-08-31T12:36:32;17.50;99.90
46117;DHT22;32591;48.102;11.772;2023-08-31T12:38:59;17.70;99.90
46117;DHT22;32591;48.102;11.772;2023-08-31T12:41:32;17.90;99.90
46117;DHT22;32591;48.102;11.772;2023-08-31T12:44:00;18.10;99.90
46117;DHT22;32591;48.102;11.772;2023-08-31T12:46:28;18.30;99.90
46117;DHT22;32591;48.102;11.772;2023-08-31T12:48:55;18.40;99.90
46117;DHT22;32591;48.102;11.772;2023-08-31T12:51:22;18.60;99.90
46117;DHT22;32591;48.102;11.772;2023-08-31T12:53:49;18.50;99.90
46117;DHT22;32591;48.102;11.772;2023-08-31T12:56:16;18.60;99.90
46117;DHT22;32591;48.102;11.772;2023-08-31T12:58:48;18.90;99.90
46117;DHT22;32591;48.102;11.772;2023-08-31T13:01:17;18.90;99.90
46117;DHT22;32591;48.102;11.772;2023-08-31T13:03:45;18.90;99.90
46117;DHT22;32591;48.102;11.772;2023-08-31T13:06:12;18.90;99.90
46117;DHT22;32591;48.102;11.772;2023-08-31T13:08:40;19.00;99.90
46117;DHT22;32591;48.102;11.772;2023-08-31T13:11:07;19.30;99.90
46117;DHT22;32591;48.102;11.772;2023-08-31T13:13:34;19.40;99.90
46117;DHT22;32591;48.102;11.772;2023-08-31T13:16:01;19.30;99.90
46117;DHT22;32591;48.102;11.772;2023-08-31T13:18:29;19.40;99.90
46117;DHT22;32591;48.102;11.772;2023-08-31T13:20:57;19.40;99.90
46117;DHT22;32591;48.102;11.772;2023-08-31T13:23:24;19.30;99.90
46117;DHT22;32591;48.102;11.772;2023-08-31T13:25:52;19.40;99.90
46117;DHT22;32591;48.102;11.772;2023-08-31T13:28:19;19.70;99.90
46117;DHT22;32591;48.102;11.772;2023-08-31T13:30:46;19.70;99.90
46117;DHT22;32591;48.102;11.772;2023-08-31T13:33:13;19.50;99.90
46117;DHT22;32591;48.102;11.772;2023-08-31T13:35:41;19.30;99.90
46117;DHT22;32591;48.102;11.772;2023-08-31T13:38:08;19.30;99.90
46117;DHT22;32591;48.102;11.772;2023-08-31T13:40:35;19.30;99.90
46117;DHT22;32591;48.102;11.772;2023-08-31T13:43:03;19.30;99.90
46117;DHT22;32591;48.102;11.772;2023-08-31T13:45:30;19.00;99.90
46117;DHT22;32591;48.102;11.772;2023-08-31T13:47:58;18.80;99.90
46117;DHT22;32591;48.102;11.772;2023-08-31T13:50:25;19.10;99.90
46117;DHT22;32591;48.102;11.772;2023-08-31T13:52:54;19.30;99.90
46117;DHT22;32591;48.102;11.772;2023-08-31T13:55:21;19.40;99.90
46117;DHT22;32591;48.102;11.772;2023-08-31T13:57:49;19.40;99.90
46117;DHT22;32591;48.102;11.772;2023-08-31T14:00:16;19.30;99.90
46117;DHT22;32591;48.102;11.772;2023-08-31T14:02:44;19.10;99.90
46117;DHT22;32591;48.102;11.772;2023-08-31T14:05:11;19.00;99.90
46117;DHT22;32591;48.102;11.772;2023-08-31T14:07:40;19.20;99.90
46117;DHT22;32591;48.102;11.772;2023-08-31T14:10:09;19.60;99.90
46117;DHT22;32591;48.102;11.772;2023-08-31T14:12:36;19.60;99.90
46117;DHT22;32591;48.102;11.772;2023-08-31T14:15:05;19.40;99.90
46117;DHT22;32591;48.102;11.772;2023-08-31T14:17:33;19.20;99.90
46117;DHT22;32591;48.102;11.772;2023-08-31T14:20:00;19.30;99.90
46117;DHT22;32591;48.102;11.772;2023-08-31T14:22:31;19.60;99.90
46117;DHT22;32591;48.102;11.772;2023-08-31T14:24:59;19.80;99.90
46117;DHT22;32591;48.102;11.772;2023-08-31T14:27:27;19.80;99.90
46117;DHT22;32591;48.102;11.772;2023-08-31T14:29:56;19.60;99.90
46117;DHT22;32591;48.102;11.772;2023-08-31T14:32:23;19.40;99.90
46117;DHT22;32591;48.102;11.772;2023-08-31T14:34:50;19.10;99.90
46117;DHT22;32591;48.102;11.772;2023-08-31T14:37:18;19.00;99.90
46117;DHT22;32591;48.102;11.772;2023-08-31T14:39:45;19.00;99.90
46117;DHT22;32591;48.102;11.772;2023-08-31T14:42:11;18.90;99.90
46117;DHT22;32591;48.102;11.772;2023-08-31T14:44:42;18.70;99.90
46117;DHT22;32591;48.102;11.772;2023-08-31T14:47:09;18.70;99.90
46117;DHT22;32591;48.102;11.772;2023-08-31T14:49:39;18.60;99.90
46117;DHT22;32591;48.102;11.772;2023-08-31T14:52:06;18.40;99.90
46117;DHT22;32591;48.102;11.772;2023-08-31T14:54:33;18.40;99.90
46117;DHT22;32591;48.102;11.772;2023-08-31T14:57:01;18.60;99.90
46117;DHT22;32591;48.102;11.772;2023-08-31T14:59:30;18.80;99.90
46117;DHT22;32591;48.102;11.772;2023-08-31T15:01:58;19.00;99.90
46117;DHT22;32591;48.102;11.772;2023-08-31T15:04:27;19.10;99.90
46117;DHT22;32591;48.102;11.772;2023-08-31T15:06:54;19.10;99.90
46117;DHT22;32591;48.102;11.772;2023-08-31T15:09:21;19.00;99.90
46117;DHT22;32591;48.102;11.772;2023-08-31T15:11:48;18.80;99.90
46117;DHT22;32591;48.102;11.772;2023-08-31T15:14:15;18.80;99.90
46117;DHT22;32591;48.102;11.772;2023-08-31T15:16:42;18.70;99.90
46117;DHT22;32591;48.102;11.772;2023-08-31T15:19:11;18.50;99.90
46117;DHT22;32591;48.102;11.772;2023-08-31T15:21:38;18.40;99.90